createdAt,value
2022-10-05T00:00:46.072Z,5.20
2022-10-05T00:02:52.659Z,4.40
2022-10-05T00:04:57.431Z,4.80
2022-10-05T00:07:20.202Z,5.53
2022-10-05T00:09:22.692Z,5.33
2022-10-05T00:11:24.795Z,4.03
2022-10-05T00:13:29.917Z,6.30
2022-10-05T00:15:32.305Z,6.90
2022-10-05T00:17:35.386Z,5.87
2022-10-05T00:19:39.393Z,3.77
2022-10-05T00:21:41.418Z,5.27
2022-10-05T00:23:43.520Z,5.23
2022-10-05T00:25:46.263Z,4.10
2022-10-05T00:27:56.912Z,3.63
2022-10-05T00:30:02.677Z,5.60
2022-10-05T00:32:04.918Z,3.70
2022-10-05T00:34:07.229Z,2.83
2022-10-05T00:36:09.501Z,4.93
2022-10-05T00:38:11.538Z,3.67
2022-10-05T00:40:31.786Z,6.87
2022-10-05T00:42:43.110Z,4.80
2022-10-05T00:44:55.174Z,3.93
2022-10-05T00:47:04.044Z,3.17
2022-10-05T00:49:14.523Z,4.30
2022-10-05T00:51:36.643Z,3.40
2022-10-05T00:54:03.498Z,5.57
2022-10-05T00:56:25.891Z,8.53
2022-10-05T00:58:55.534Z,6.37
2022-10-05T01:01:15.493Z,7.47
2022-10-05T01:03:38.325Z,3.57
2022-10-05T01:05:52.173Z,4.37
2022-10-05T01:08:21.694Z,4.90
2022-10-05T01:10:34.437Z,6.77
2022-10-05T01:12:59.196Z,5.53
2022-10-05T01:15:04.692Z,3.60
2022-10-05T01:17:38.076Z,5.17
2022-10-05T01:20:09.987Z,8.43
2022-10-05T01:22:27.480Z,7.53
2022-10-05T01:24:44.734Z,4.87
2022-10-05T01:26:56.094Z,3.27
2022-10-05T01:29:16.624Z,4.83
2022-10-05T01:31:24.785Z,2.45
2022-10-05T01:33:36.168Z,6.63
2022-10-05T01:36:03.564Z,3.33
2022-10-05T01:38:37.102Z,3.83
2022-10-05T01:41:13.672Z,3.93
2022-10-05T01:43:36.479Z,5.70
2022-10-05T01:45:53.888Z,4.33
2022-10-05T01:48:10.076Z,3.97
2022-10-05T01:51:27.552Z,8.33
2022-10-05T01:53:48.091Z,4.33
2022-10-05T01:56:01.774Z,7.20
2022-10-05T01:58:35.189Z,5.07
2022-10-05T02:01:12.593Z,4.70
2022-10-05T02:03:24.761Z,3.43
2022-10-05T02:05:36.239Z,4.50
2022-10-05T02:07:43.006Z,9.43
2022-10-05T02:09:54.586Z,6.03
2022-10-05T02:12:03.781Z,5.70
2022-10-05T02:14:12.767Z,4.97
2022-10-05T02:16:22.306Z,6.07
2022-10-05T02:18:33.940Z,4.80
2022-10-05T02:20:41.531Z,4.73
2022-10-05T02:22:56.355Z,2.93
2022-10-05T02:25:03.696Z,4.60
2022-10-05T02:27:09.030Z,3.00
2022-10-05T02:29:16.769Z,2.53
2022-10-05T02:31:30.157Z,3.43
2022-10-05T02:34:16.770Z,2.43
2022-10-05T02:36:32.301Z,3.13
2022-10-05T02:38:51.929Z,3.23
2022-10-05T02:41:14.966Z,3.43
2022-10-05T02:43:23.649Z,3.33
2022-10-05T02:45:37.954Z,6.30
2022-10-05T02:48:00.640Z,2.20
2022-10-05T02:50:15.776Z,3.67
2022-10-05T02:52:45.213Z,3.27
2022-10-05T02:55:18.235Z,5.20
2022-10-05T02:57:38.801Z,4.20
2022-10-05T02:59:48.869Z,3.93
2022-10-05T03:01:54.758Z,4.27
2022-10-05T03:04:15.229Z,4.43
2022-10-05T03:06:23.709Z,2.97
2022-10-05T03:08:47.510Z,2.80
2022-10-05T03:11:26.825Z,3.00
2022-10-05T03:13:48.422Z,2.40
2022-10-05T03:15:55.079Z,3.17
2022-10-05T03:18:08.101Z,1.80
2022-10-05T03:20:22.104Z,3.67
2022-10-05T03:22:34.042Z,2.67
2022-10-05T03:24:41.889Z,5.30
2022-10-05T03:27:04.450Z,3.45
2022-10-05T03:29:25.037Z,5.53
2022-10-05T03:31:42.164Z,3.67
2022-10-05T03:33:56.245Z,5.97
2022-10-05T03:36:05.406Z,4.63
2022-10-05T03:38:10.346Z,5.17
2022-10-05T03:40:28.660Z,5.30
2022-10-05T03:42:57.165Z,7.47
2022-10-05T03:45:26.817Z,8.43
2022-10-05T03:47:52.381Z,5.30
2022-10-05T03:50:00.431Z,5.20
2022-10-05T03:52:10.676Z,6.47
2022-10-05T03:54:23.719Z,3.40
2022-10-05T03:56:41.022Z,4.77
2022-10-05T03:58:53.121Z,5.53
2022-10-05T04:01:00.856Z,6.40
2022-10-05T04:03:35.543Z,7.23
2022-10-05T04:05:52.220Z,10.73
2022-10-05T04:07:59.461Z,7.63
2022-10-05T04:10:09.357Z,4.60
2022-10-05T04:12:38.980Z,5.90
2022-10-05T04:14:55.434Z,8.63
2022-10-05T04:17:05.085Z,4.53
2022-10-05T04:19:16.925Z,5.03
2022-10-05T04:21:28.696Z,4.60
2022-10-05T04:23:43.961Z,3.60
2022-10-05T04:26:02.329Z,5.37
2022-10-05T04:28:32.375Z,5.67
2022-10-05T04:30:42.193Z,4.90
2022-10-05T04:32:50.204Z,6.80
2022-10-05T04:34:54.571Z,4.47
2022-10-05T04:37:03.119Z,8.27
2022-10-05T04:39:21.366Z,9.53
2022-10-05T04:41:24.515Z,10.10
2022-10-05T04:44:05.679Z,7.93
2022-10-05T04:46:19.274Z,6.60
2022-10-05T04:48:32.953Z,5.23
2022-10-05T04:50:55.461Z,10.33
2022-10-05T04:53:28.200Z,5.53
2022-10-05T04:55:45.533Z,5.53
2022-10-05T04:58:13.480Z,7.97
2022-10-05T05:00:23.080Z,13.63
2022-10-05T05:02:41.248Z,10.57
2022-10-05T05:05:06.100Z,11.43
2022-10-05T05:07:49.366Z,11.50
2022-10-05T05:10:05.486Z,11.83
2022-10-05T05:12:38.703Z,12.03
2022-10-05T05:14:43.681Z,9.13
2022-10-05T05:17:08.538Z,11.13
2022-10-05T05:19:17.301Z,10.33
2022-10-05T05:21:41.138Z,12.37
2022-10-05T05:24:05.677Z,9.33
2022-10-05T05:26:22.651Z,10.27
2022-10-05T05:28:47.221Z,4.93
2022-10-05T05:30:57.637Z,9.00
2022-10-05T05:33:16.739Z,9.93
2022-10-05T05:35:40.059Z,12.07
2022-10-05T05:38:11.918Z,10.53
2022-10-05T05:40:24.065Z,15.53
2022-10-05T05:42:49.761Z,11.10
2022-10-05T05:44:58.738Z,12.00
2022-10-05T05:47:11.089Z,13.57
2022-10-05T05:49:36.122Z,16.10
2022-10-05T05:51:46.005Z,18.00
2022-10-05T05:53:55.997Z,14.73
2022-10-05T06:00:15.518Z,9.03
2022-10-05T06:03:05.311Z,9.30
2022-10-05T06:05:32.169Z,7.73
2022-10-05T06:07:38.100Z,7.37
2022-10-05T06:10:07.921Z,8.98
2022-10-05T06:12:27.239Z,6.75
2022-10-05T06:14:35.342Z,5.95
2022-10-05T06:16:47.421Z,8.77
2022-10-05T06:18:59.279Z,4.78
2022-10-05T06:21:24.575Z,8.70
2022-10-05T06:23:35.925Z,9.77
2022-10-05T06:26:10.915Z,8.10
2022-10-05T06:28:19.858Z,7.70
2022-10-05T06:30:30.955Z,7.95
2022-10-05T06:32:33.603Z,12.68
2022-10-05T06:35:11.860Z,7.93
2022-10-05T06:37:34.151Z,9.63
2022-10-05T06:40:00.795Z,8.15
2022-10-05T06:42:13.631Z,5.45
2022-10-05T06:44:53.608Z,9.13
2022-10-05T06:47:29.928Z,5.82
2022-10-05T06:49:58.033Z,7.47
2022-10-05T06:52:25.645Z,7.82
2022-10-05T06:55:00.790Z,6.72
2022-10-05T06:57:08.738Z,11.05
2022-10-05T06:59:40.383Z,9.32
2022-10-05T07:01:51.740Z,6.90
2022-10-05T07:03:57.566Z,12.50
2022-10-05T07:06:07.372Z,14.73
2022-10-05T07:08:19.743Z,8.43
2022-10-05T07:10:30.670Z,6.32
2022-10-05T07:12:47.199Z,7.75
2022-10-05T07:14:52.275Z,6.13
2022-10-05T07:17:20.519Z,7.95
2022-10-05T07:19:35.222Z,6.90
2022-10-05T07:21:45.935Z,5.38
2022-10-05T07:24:13.224Z,5.32
2022-10-05T07:26:27.584Z,3.28
2022-10-05T07:28:48.098Z,4.22
2022-10-05T07:31:00.616Z,4.30
2022-10-05T07:33:18.157Z,4.47
2022-10-05T07:35:54.450Z,3.97
2022-10-05T07:38:02.052Z,3.28
2022-10-05T07:40:11.230Z,4.43
2022-10-05T07:42:52.223Z,2.83
2022-10-05T07:45:18.301Z,3.35
2022-10-05T07:47:32.054Z,4.75
2022-10-05T07:49:42.016Z,5.43
2022-10-05T07:51:58.620Z,5.07
2022-10-05T07:54:25.863Z,4.15
2022-10-05T07:56:50.625Z,6.32
2022-10-05T07:59:07.912Z,3.83
2022-10-05T08:01:25.040Z,2.65
2022-10-05T08:03:52.499Z,4.60
2022-10-05T08:05:55.298Z,3.00
2022-10-05T08:08:24.935Z,3.90
2022-10-05T08:10:38.499Z,6.22
2022-10-05T08:13:04.523Z,4.05
2022-10-05T08:15:20.892Z,4.03
2022-10-05T08:18:00.638Z,4.40
2022-10-05T08:20:06.496Z,6.68
2022-10-05T08:22:19.798Z,5.38
2022-10-05T08:24:38.676Z,5.55
2022-10-05T08:27:06.555Z,5.18
2022-10-05T08:29:30.063Z,4.03
2022-10-05T08:31:33.853Z,3.30
2022-10-05T08:34:00.600Z,3.08
2022-10-05T08:36:14.621Z,3.85
2022-10-05T08:38:20.233Z,2.83
2022-10-05T08:41:01.226Z,2.90
2022-10-05T08:43:35.045Z,4.80
2022-10-05T08:46:08.442Z,3.20
2022-10-05T08:48:36.416Z,1.75
2022-10-05T08:50:38.262Z,2.83
2022-10-05T08:52:43.367Z,2.47
2022-10-05T08:55:10.382Z,3.53
2022-10-05T08:57:15.477Z,3.78
2022-10-05T08:59:44.674Z,1.88
2022-10-05T09:02:28.349Z,2.15
2022-10-05T09:04:48.302Z,2.88
2022-10-05T09:07:01.450Z,1.88
2022-10-05T09:09:18.689Z,3.33
2022-10-05T09:11:26.959Z,3.28
2022-10-05T09:13:40.819Z,5.07
2022-10-05T09:16:02.996Z,2.28
2022-10-05T09:18:42.469Z,2.60
2022-10-05T09:20:55.348Z,2.17
2022-10-05T09:23:00.231Z,2.38
2022-10-05T09:25:21.277Z,3.13
2022-10-05T09:27:36.534Z,2.35
2022-10-05T09:30:20.297Z,1.85
2022-10-05T09:32:59.318Z,2.42
2022-10-05T09:35:23.065Z,1.95
2022-10-05T09:37:50.257Z,2.90
2022-10-05T09:40:35.139Z,2.10
2022-10-05T09:43:17.745Z,4.05
2022-10-05T09:45:38.378Z,3.42
2022-10-05T09:47:50.682Z,1.77
2022-10-05T09:50:18.849Z,0.93
2022-10-05T09:53:11.025Z,3.70
2022-10-05T09:55:46.935Z,22.25
2022-10-05T09:57:55.573Z,16.00
2022-10-05T09:59:57.581Z,10.43
2022-10-05T10:02:14.156Z,9.95
2022-10-05T10:04:29.759Z,7.72
2022-10-05T10:07:17.100Z,2.58
2022-10-05T10:09:28.393Z,1.75
2022-10-05T10:11:42.025Z,1.58
2022-10-05T10:13:47.076Z,1.20
2022-10-05T10:15:57.800Z,3.72
2022-10-05T10:18:38.162Z,2.67
2022-10-05T10:20:48.984Z,9.70
2022-10-05T10:22:59.933Z,9.35
2022-10-05T10:25:43.538Z,15.70
2022-10-05T10:27:51.702Z,17.67
2022-10-05T10:30:12.315Z,11.30
2022-10-05T10:32:17.430Z,12.27
2022-10-05T10:35:10.146Z,15.25
2022-10-05T10:37:21.103Z,5.22
2022-10-05T10:39:45.299Z,7.35
2022-10-05T10:42:02.682Z,10.15
2022-10-05T10:44:52.651Z,10.75
2022-10-05T10:47:22.392Z,9.38
2022-10-05T10:49:59.500Z,7.28
2022-10-05T10:52:01.516Z,12.02
2022-10-05T10:54:22.312Z,22.48
2022-10-05T10:56:54.703Z,23.60
2022-10-05T10:59:05.478Z,27.05
2022-10-05T11:01:29.296Z,36.25
2022-10-05T11:03:43.283Z,50.88
2022-10-05T11:06:01.562Z,52.65
2022-10-05T11:08:12.751Z,24.05
2022-10-05T11:10:31.701Z,7.72
2022-10-05T11:12:51.641Z,14.57
2022-10-05T11:15:16.905Z,13.07
2022-10-05T11:17:18.923Z,21.45
2022-10-05T11:20:20.853Z,33.13
2022-10-05T11:22:32.741Z,19.42
2022-10-05T11:25:07.197Z,121.30
2022-10-05T11:27:15.083Z,114.10
2022-10-05T11:29:23.068Z,87.45
2022-10-05T11:32:04.146Z,64.30
2022-10-05T11:34:41.474Z,57.53
2022-10-05T11:37:10.944Z,58.40
2022-10-05T11:39:44.765Z,89.53
2022-10-05T11:42:11.696Z,80.55
2022-10-05T11:44:31.990Z,60.20
2022-10-05T11:46:49.671Z,28.90
2022-10-05T11:49:34.452Z,33.97
2022-10-05T11:51:59.238Z,42.03
2022-10-05T11:54:10.334Z,42.13
2022-10-05T11:56:34.107Z,45.40
2022-10-05T11:58:59.752Z,29.52
2022-10-05T12:01:20.293Z,44.38
2022-10-05T12:03:42.675Z,33.60
2022-10-05T12:06:13.970Z,27.63
2022-10-05T12:08:24.584Z,15.68
2022-10-05T12:10:52.566Z,9.98
2022-10-05T12:12:57.774Z,17.50
2022-10-05T12:15:35.273Z,19.80
2022-10-05T12:18:06.931Z,13.35
2022-10-05T12:20:35.843Z,12.07
2022-10-05T12:22:49.785Z,6.63
2022-10-05T12:25:11.886Z,5.63
2022-10-05T12:27:27.140Z,35.55
2022-10-05T12:29:51.932Z,35.92
2022-10-05T12:32:33.793Z,28.40
2022-10-05T12:35:01.441Z,18.65
2022-10-05T12:37:29.094Z,31.15
2022-10-05T12:39:49.975Z,34.80
2022-10-05T12:42:05.866Z,25.58
2022-10-05T12:44:21.562Z,23.75
2022-10-05T12:46:44.349Z,38.72
2022-10-05T12:49:05.004Z,26.00
2022-10-05T12:51:20.216Z,15.73
2022-10-05T12:53:28.829Z,16.30
2022-10-05T12:55:59.912Z,26.60
2022-10-05T12:58:23.118Z,10.48
2022-10-05T13:00:32.671Z,14.70
2022-10-05T13:02:44.099Z,16.85
2022-10-05T13:05:12.035Z,15.43
2022-10-05T13:07:48.591Z,19.08
2022-10-05T13:10:09.229Z,29.15
2022-10-05T13:12:26.726Z,24.95
2022-10-05T13:14:31.783Z,27.92
2022-10-05T13:16:55.295Z,32.90
2022-10-05T13:19:16.179Z,26.48
2022-10-05T13:21:30.336Z,27.67
2022-10-05T13:23:57.549Z,31.27
2022-10-05T13:26:08.940Z,20.67
2022-10-05T13:28:18.059Z,61.50
2022-10-05T13:30:22.108Z,60.78
2022-10-05T13:32:41.238Z,41.35
2022-10-05T13:34:50.691Z,43.38
2022-10-05T13:37:17.548Z,28.95
2022-10-05T13:39:47.177Z,13.68
2022-10-05T13:42:15.522Z,10.73
2022-10-05T13:44:34.138Z,18.92
2022-10-05T13:46:54.090Z,13.68
2022-10-05T13:49:18.278Z,16.60
2022-10-05T13:51:38.752Z,19.55
2022-10-05T13:54:14.823Z,17.42
2022-10-05T13:56:34.713Z,17.67
2022-10-05T13:58:45.234Z,14.45
2022-10-05T14:00:53.107Z,7.13
2022-10-05T14:02:57.729Z,6.03
2022-10-05T14:05:02.848Z,8.48
2022-10-05T14:07:34.167Z,3.03
2022-10-05T14:09:36.220Z,3.58
2022-10-05T14:11:51.924Z,6.80
2022-10-05T14:14:01.603Z,6.53
2022-10-05T14:16:22.400Z,7.03
2022-10-05T14:18:27.598Z,9.27
2022-10-05T14:20:34.325Z,10.57
2022-10-05T14:22:42.364Z,10.35
2022-10-05T14:24:52.538Z,14.25
2022-10-05T14:26:56.656Z,17.27
2022-10-05T14:29:17.877Z,21.67
2022-10-05T14:31:32.129Z,24.27
2022-10-05T14:33:36.074Z,25.45
2022-10-05T14:35:44.058Z,24.90
2022-10-05T14:37:58.386Z,29.58
2022-10-05T14:40:22.439Z,31.10
2022-10-05T14:42:29.145Z,37.42
2022-10-05T14:46:36.760Z,36.58
2022-10-05T14:48:43.388Z,35.65
2022-10-05T14:50:55.403Z,36.80
2022-10-05T14:53:10.502Z,37.00
2022-10-05T14:55:57.110Z,37.80
2022-10-05T14:58:02.406Z,35.83
2022-10-05T15:00:13.442Z,35.50
2022-10-05T15:02:48.206Z,26.80
2022-10-05T15:05:25.515Z,22.98
2022-10-05T15:07:39.083Z,17.65
2022-10-05T15:10:16.051Z,16.25
2022-10-05T15:12:39.012Z,14.45
2022-10-05T15:14:45.050Z,13.20
2022-10-05T15:16:51.741Z,13.52
2022-10-05T15:19:17.171Z,12.55
2022-10-05T15:21:31.974Z,12.35
2022-10-05T15:23:34.043Z,10.25
2022-10-05T15:25:43.224Z,10.05
2022-10-05T15:28:11.532Z,11.93
2022-10-05T15:30:21.435Z,8.57
2022-10-05T15:32:51.863Z,7.88
2022-10-05T15:35:09.613Z,7.75
2022-10-05T15:37:37.131Z,9.93
2022-10-05T15:39:50.294Z,9.10
2022-10-05T15:42:02.086Z,7.32
2022-10-05T15:44:36.487Z,9.32
2022-10-05T15:46:44.306Z,9.20
2022-10-05T15:48:56.062Z,9.73
2022-10-05T15:51:15.385Z,9.32
2022-10-05T15:53:38.627Z,10.88
2022-10-05T15:55:53.411Z,11.38
2022-10-05T15:58:21.122Z,10.18
2022-10-05T16:00:25.563Z,6.72
2022-10-05T16:03:05.463Z,7.85
2022-10-05T16:05:56.400Z,10.23
2022-10-05T16:08:16.950Z,11.05
2022-10-05T16:10:21.894Z,6.93
2022-10-05T16:12:26.862Z,7.53
2022-10-05T16:14:42.602Z,8.55
2022-10-05T16:17:22.005Z,6.43
2022-10-05T16:19:39.470Z,7.10
2022-10-05T16:22:11.143Z,9.25
2022-10-05T16:24:47.596Z,13.05
2022-10-05T16:27:00.329Z,11.48
2022-10-05T16:29:17.835Z,12.10
2022-10-05T16:31:31.351Z,12.27
2022-10-05T16:34:00.778Z,13.20
2022-10-05T16:36:32.170Z,14.90
2022-10-05T16:38:38.615Z,15.57
2022-10-05T16:41:18.199Z,14.57
2022-10-05T16:43:46.530Z,17.30
2022-10-05T16:46:30.066Z,19.65
2022-10-05T16:49:12.353Z,18.70
2022-10-05T16:51:52.222Z,20.58
2022-10-05T16:54:00.145Z,18.27
2022-10-05T16:56:07.045Z,19.58
2022-10-05T16:58:25.620Z,17.92
2022-10-05T17:00:45.683Z,21.02
2022-10-05T17:03:05.860Z,37.47
2022-10-05T17:05:26.371Z,38.97
2022-10-05T17:07:43.722Z,46.22
2022-10-05T17:10:08.410Z,44.00
2022-10-05T17:12:53.269Z,45.22
2022-10-05T17:15:15.001Z,39.97
2022-10-05T17:18:01.481Z,31.73
2022-10-05T17:20:21.200Z,29.52
2022-10-05T17:22:39.867Z,33.92
2022-10-05T17:24:56.904Z,30.98
2022-10-05T17:27:15.983Z,28.98
2022-10-05T17:29:47.670Z,27.75
2022-10-05T17:32:11.391Z,29.45
2022-10-05T17:34:16.621Z,23.30
2022-10-05T17:36:18.997Z,22.60
2022-10-05T17:38:23.829Z,22.70
2022-10-05T17:40:28.819Z,19.80
2022-10-05T17:42:34.259Z,20.65
2022-10-05T17:44:36.038Z,21.42
2022-10-05T17:46:39.367Z,19.20
2022-10-05T17:48:44.155Z,20.17
2022-10-05T17:51:07.269Z,18.83
2022-10-05T17:53:52.954Z,22.83
2022-10-05T17:56:05.311Z,25.58
2022-10-05T17:59:00.063Z,31.10
2022-10-05T18:01:01.783Z,32.53
2022-10-05T18:03:37.961Z,35.50
2022-10-05T18:05:40.324Z,32.58
2022-10-05T18:07:48.862Z,25.98
2022-10-05T18:10:00.391Z,31.20
2022-10-05T18:12:18.064Z,34.88
2022-10-05T18:14:55.000Z,37.63
2022-10-05T18:17:04.038Z,39.58
2022-10-05T18:19:16.716Z,40.70
2022-10-05T18:22:17.561Z,44.25
2022-10-05T18:24:32.495Z,41.08
2022-10-05T18:26:53.152Z,33.80
2022-10-05T18:29:36.735Z,29.10
2022-10-05T18:32:00.523Z,23.42
2022-10-05T18:34:14.050Z,18.75
2022-10-05T18:36:16.281Z,18.65
2022-10-05T18:38:49.226Z,16.83
2022-10-05T18:41:12.516Z,19.70
2022-10-05T18:43:33.083Z,18.27
2022-10-05T18:45:53.270Z,19.02
2022-10-05T18:48:31.261Z,17.00
2022-10-05T18:50:53.849Z,16.50
2022-10-05T18:53:28.526Z,21.23
2022-10-05T18:55:36.321Z,20.90
2022-10-05T18:58:00.374Z,19.13
2022-10-05T19:00:15.354Z,18.98
2022-10-05T19:02:30.301Z,23.98
2022-10-05T19:05:09.184Z,18.55
2022-10-05T19:07:26.927Z,20.77
2022-10-05T19:09:44.087Z,19.02
2022-10-05T19:12:12.241Z,18.23
2022-10-05T19:15:01.030Z,18.40
2022-10-05T19:17:30.967Z,15.60
2022-10-05T19:19:51.418Z,18.80
2022-10-05T19:22:13.317Z,23.45
2022-10-05T19:24:41.841Z,18.52
2022-10-05T19:27:14.433Z,20.58
2022-10-05T19:29:57.669Z,21.08
2022-10-05T19:32:15.942Z,23.80
2022-10-05T19:34:42.384Z,25.52
2022-10-05T19:37:14.909Z,24.42
2022-10-05T19:39:33.769Z,21.10
2022-10-05T19:41:46.725Z,26.95
2022-10-05T19:44:27.423Z,25.02
2022-10-05T19:46:55.489Z,24.17
2022-10-05T19:49:00.327Z,18.15
2022-10-05T19:51:11.484Z,17.20
2022-10-05T19:53:45.949Z,15.93
2022-10-05T19:55:48.179Z,18.98
2022-10-05T19:58:01.505Z,21.77
2022-10-05T20:00:04.653Z,13.25
2022-10-05T20:02:06.891Z,14.60
2022-10-05T20:04:10.757Z,13.85
2022-10-05T20:06:13.608Z,11.93
2022-10-05T20:08:17.823Z,16.30
2022-10-05T20:10:29.597Z,12.23
2022-10-05T20:13:03.992Z,11.38
2022-10-05T20:15:27.216Z,12.02
2022-10-05T20:17:51.930Z,11.10
2022-10-05T20:20:12.577Z,12.50
2022-10-05T20:22:34.643Z,12.75
2022-10-05T20:24:50.037Z,9.82
2022-10-05T20:27:09.556Z,10.43
2022-10-05T20:29:12.616Z,10.82
2022-10-05T20:31:14.823Z,10.85
2022-10-05T20:33:17.007Z,9.95
2022-10-05T20:35:23.902Z,10.70
2022-10-05T20:37:26.372Z,12.07
2022-10-05T20:39:28.499Z,10.73
2022-10-05T20:41:30.722Z,9.38
2022-10-05T20:43:32.741Z,11.02
2022-10-05T20:45:43.435Z,10.05
2022-10-05T20:47:47.477Z,7.88
2022-10-05T20:49:49.821Z,8.07
2022-10-05T20:51:55.820Z,8.75
2022-10-05T20:53:58.774Z,8.38
2022-10-05T20:56:02.695Z,7.97
2022-10-05T20:58:04.851Z,10.45
2022-10-05T21:00:08.154Z,10.15
2022-10-05T21:02:10.624Z,8.27
2022-10-05T21:04:12.900Z,8.40
2022-10-05T21:06:15.056Z,8.63
2022-10-05T21:08:17.972Z,10.00
2022-10-05T21:10:20.070Z,11.52
2022-10-05T21:12:22.693Z,10.35
2022-10-05T21:14:33.069Z,12.52
2022-10-05T21:16:38.245Z,9.50
2022-10-05T21:18:40.985Z,10.20
2022-10-05T21:20:43.118Z,13.20
2022-10-05T21:22:45.173Z,16.55
2022-10-05T21:24:47.429Z,12.65
2022-10-05T21:26:52.462Z,8.50
2022-10-05T21:28:54.757Z,7.28
2022-10-05T21:30:56.936Z,7.30
2022-10-05T21:32:59.009Z,6.55
2022-10-05T21:35:02.267Z,6.97
2022-10-05T21:37:05.001Z,9.57
2022-10-05T21:39:07.267Z,7.30
2022-10-05T21:41:09.358Z,8.02
2022-10-05T21:43:13.502Z,6.63
2022-10-05T21:45:15.626Z,6.32
2022-10-05T21:47:17.848Z,6.22
2022-10-05T21:49:20.229Z,8.60
2022-10-05T21:51:25.397Z,8.80
2022-10-05T21:53:32.278Z,7.45
2022-10-05T21:55:36.110Z,7.00
2022-10-05T21:57:38.950Z,5.57
2022-10-05T21:59:41.417Z,7.03
2022-10-05T22:01:43.670Z,8.95
2022-10-05T22:03:45.983Z,10.70
2022-10-05T22:06:49.029Z,9.85
2022-10-05T22:08:51.503Z,6.95
2022-10-05T22:10:56.833Z,8.93
2022-10-05T22:13:04.935Z,6.05
2022-10-05T22:15:07.627Z,9.05
2022-10-05T22:17:22.504Z,7.13
2022-10-05T22:19:25.307Z,8.65
2022-10-05T22:21:27.327Z,10.48
2022-10-05T22:23:29.489Z,10.38
2022-10-05T22:25:33.971Z,8.88
2022-10-05T22:27:36.605Z,11.90
2022-10-05T22:29:39.139Z,8.68
2022-10-05T22:31:41.492Z,9.73
2022-10-05T22:33:44.726Z,7.07
2022-10-05T22:35:49.648Z,6.45
2022-10-05T22:37:51.694Z,6.68
2022-10-05T22:39:55.369Z,6.47
2022-10-05T22:41:58.052Z,5.22
2022-10-05T22:44:03.197Z,5.07
2022-10-05T22:46:13.041Z,6.03
2022-10-05T22:48:16.279Z,6.65
2022-10-05T22:50:18.401Z,7.22
2022-10-05T22:52:21.437Z,5.40
2022-10-05T22:54:27.451Z,5.55
2022-10-05T22:56:31.518Z,5.80
2022-10-05T22:58:33.904Z,4.88
2022-10-05T23:00:59.179Z,4.95
2022-10-05T23:02:59.802Z,5.47
2022-10-05T23:05:01.934Z,5.70
2022-10-05T23:07:04.576Z,4.97
2022-10-05T23:09:06.724Z,4.38
2022-10-05T23:11:12.932Z,5.47
2022-10-05T23:13:16.204Z,4.32
2022-10-05T23:15:18.555Z,4.22
2022-10-05T23:17:21.281Z,6.43
2022-10-05T23:19:24.061Z,4.90
2022-10-05T23:21:29.136Z,5.20
2022-10-05T23:23:31.203Z,6.03
2022-10-05T23:25:33.507Z,5.47
2022-10-05T23:27:39.967Z,6.63
2022-10-05T23:29:42.125Z,3.97
2022-10-05T23:31:44.144Z,4.03
2022-10-05T23:33:46.499Z,6.22
2022-10-05T23:35:48.488Z,6.65
2022-10-05T23:37:51.152Z,5.13
2022-10-05T23:39:56.007Z,4.05
2022-10-05T23:42:00.105Z,4.25
2022-10-05T23:44:02.057Z,3.85
2022-10-05T23:46:06.651Z,3.65
2022-10-05T23:48:08.703Z,5.80
2022-10-05T23:50:10.937Z,3.78
2022-10-05T23:52:13.402Z,4.97
2022-10-05T23:54:16.549Z,3.72
2022-10-05T23:56:19.774Z,3.85
2022-10-05T23:58:23.203Z,3.60
